createdAt,value
2018-06-19T00:01:13.769Z,66.30
2018-06-19T00:03:50.135Z,66.70
2018-06-19T00:06:26.985Z,66.90
2018-06-19T00:09:05.642Z,67.10
2018-06-19T00:11:42.348Z,67.00
2018-06-19T00:14:18.585Z,66.90
2018-06-19T00:16:56.460Z,66.80
2018-06-19T00:19:36.064Z,66.60
2018-06-19T00:22:11.999Z,67.20
2018-06-19T00:24:49.016Z,67.20
2018-06-19T00:27:25.622Z,67.30
2018-06-19T00:30:03.377Z,67.50
2018-06-19T00:32:40.008Z,67.80
2018-06-19T00:35:16.897Z,68.50
2018-06-19T00:37:53.484Z,69.00
2018-06-19T00:40:30.066Z,69.20
2018-06-19T00:43:07.148Z,69.40
2018-06-19T00:45:44.435Z,69.40
2018-06-19T00:48:20.508Z,69.40
2018-06-19T00:50:58.537Z,69.70
2018-06-19T00:53:35.591Z,69.40
2018-06-19T00:57:19.145Z,69.60
2018-06-19T00:59:56.387Z,70.20
2018-06-19T01:02:34.308Z,70.50
2018-06-19T01:05:10.768Z,70.60
2018-06-19T01:07:48.463Z,70.70
2018-06-19T01:10:24.515Z,71.10
2018-06-19T01:13:03.433Z,71.50
2018-06-19T01:15:42.157Z,71.80
2018-06-19T01:18:19.026Z,72.40
2018-06-19T01:20:56.629Z,72.70
2018-06-19T01:23:32.788Z,72.80
2018-06-19T01:26:10.392Z,73.20
2018-06-19T01:28:46.453Z,73.50
2018-06-19T01:31:22.858Z,73.50
2018-06-19T01:33:59.181Z,73.50
2018-06-19T01:36:35.977Z,73.40
2018-06-19T01:39:14.565Z,73.80
2018-06-19T01:41:50.133Z,73.60
2018-06-19T01:44:28.652Z,73.40
2018-06-19T01:47:06.045Z,73.30
2018-06-19T01:49:42.116Z,73.50
2018-06-19T01:52:17.995Z,73.50
2018-06-19T01:54:54.453Z,73.50
2018-06-19T01:57:30.293Z,73.60
2018-06-19T02:00:06.554Z,73.80
2018-06-19T02:02:42.642Z,73.90
2018-06-19T02:05:20.881Z,73.70
2018-06-19T02:07:58.920Z,73.70
2018-06-19T02:10:37.531Z,73.70
2018-06-19T02:13:13.598Z,73.80
2018-06-19T02:15:50.654Z,73.80
2018-06-19T02:18:27.240Z,74.50
2018-06-19T02:21:05.220Z,73.70
2018-06-19T02:23:41.790Z,73.80
2018-06-19T02:26:17.919Z,74.20
2018-06-19T02:28:53.947Z,73.40
2018-06-19T02:31:30.581Z,73.40
2018-06-19T02:34:07.080Z,73.40
2018-06-19T02:36:43.263Z,73.40
2018-06-19T02:39:18.794Z,73.40
2018-06-19T02:41:54.561Z,73.40
2018-06-19T02:44:30.591Z,73.30
2018-06-19T02:47:06.916Z,73.00
2018-06-19T02:49:42.869Z,73.80
2018-06-19T02:52:19.864Z,73.20
2018-06-19T02:54:56.489Z,73.10
2018-06-19T02:57:32.677Z,73.20
2018-06-19T03:00:09.785Z,73.20
2018-06-19T03:02:46.449Z,73.00
2018-06-19T03:05:24.407Z,73.20
2018-06-19T03:08:01.413Z,73.40
2018-06-19T03:10:37.792Z,73.30
2018-06-19T03:13:15.446Z,73.30
2018-06-19T03:15:51.010Z,73.20
2018-06-19T03:18:26.927Z,74.00
2018-06-19T03:21:03.404Z,73.30
2018-06-19T03:23:39.643Z,73.40
2018-06-19T03:26:16.386Z,73.40
2018-06-19T03:28:52.980Z,73.60
2018-06-19T03:31:29.441Z,73.50
2018-06-19T03:34:05.833Z,73.40
2018-06-19T03:36:42.792Z,73.30
2018-06-19T03:39:20.902Z,73.30
2018-06-19T03:41:57.289Z,73.20
2018-06-19T03:44:34.180Z,73.10
2018-06-19T03:47:11.053Z,72.50
2018-06-19T03:49:49.070Z,72.20
2018-06-19T03:52:25.905Z,72.30
2018-06-19T03:55:03.180Z,71.80
2018-06-19T03:57:43.244Z,71.60
2018-06-19T04:00:19.292Z,71.70
2018-06-19T04:02:55.096Z,71.60
2018-06-19T04:05:31.333Z,71.60
2018-06-19T04:08:08.706Z,71.80
2018-06-19T04:10:46.422Z,71.80
2018-06-19T04:13:22.061Z,71.70
2018-06-19T04:15:58.392Z,71.60
2018-06-19T04:18:34.529Z,71.50
2018-06-19T04:21:11.146Z,71.50
2018-06-19T04:23:47.164Z,71.30
2018-06-19T04:26:23.900Z,70.70
2018-06-19T04:29:00.215Z,70.40
2018-06-19T04:31:37.027Z,70.40
2018-06-19T04:34:13.267Z,70.40
2018-06-19T04:36:49.644Z,70.60
2018-06-19T04:39:26.066Z,70.40
2018-06-19T04:42:03.930Z,70.50
2018-06-19T04:44:41.496Z,70.60
2018-06-19T04:47:18.373Z,70.40
2018-06-19T04:49:56.581Z,70.40
2018-06-19T04:52:34.264Z,69.90
2018-06-19T04:55:11.773Z,69.50
2018-06-19T04:57:48.565Z,69.70
2018-06-19T05:00:27.355Z,69.10
2018-06-19T05:03:05.898Z,68.70
2018-06-19T05:05:43.790Z,68.20
2018-06-19T05:08:20.513Z,67.20
2018-06-19T05:10:57.784Z,66.30
2018-06-19T05:13:34.708Z,65.90
2018-06-19T05:16:11.066Z,65.60
2018-06-19T05:18:47.761Z,66.20
2018-06-19T05:21:24.957Z,66.60
2018-06-19T05:24:00.540Z,66.50
2018-06-19T05:26:36.420Z,66.70
2018-06-19T05:29:14.135Z,66.70
2018-06-19T05:31:50.757Z,66.50
2018-06-19T05:34:27.312Z,65.80
2018-06-19T05:37:04.967Z,65.50
2018-06-19T05:39:40.989Z,65.80
2018-06-19T05:42:17.208Z,65.20
2018-06-19T05:44:54.336Z,64.40
2018-06-19T05:47:30.592Z,64.40
2018-06-19T05:50:08.980Z,64.50
2018-06-19T05:52:45.143Z,64.30
2018-06-19T05:55:21.969Z,64.60
2018-06-19T05:57:58.876Z,63.80
2018-06-19T06:00:36.985Z,63.90
2018-06-19T06:03:14.929Z,63.60
2018-06-19T06:05:51.974Z,63.70
2018-06-19T06:08:29.647Z,63.50
2018-06-19T06:11:06.488Z,63.20
2018-06-19T06:13:43.091Z,63.10
2018-06-19T06:16:22.304Z,62.70
2018-06-19T06:18:58.856Z,62.20
2018-06-19T06:21:36.219Z,61.60
2018-06-19T06:24:12.053Z,62.00
2018-06-19T06:26:50.501Z,62.20
2018-06-19T06:29:28.220Z,62.00
2018-06-19T06:32:06.117Z,61.80
2018-06-19T06:34:43.839Z,61.20
2018-06-19T06:37:19.436Z,62.00
2018-06-19T06:39:55.248Z,62.00
2018-06-19T06:42:31.083Z,60.20
2018-06-19T06:45:08.012Z,60.00
2018-06-19T06:47:48.551Z,60.60
2018-06-19T06:50:24.843Z,60.50
2018-06-19T06:53:02.322Z,60.40
2018-06-19T06:55:40.041Z,60.80
2018-06-19T06:58:16.330Z,60.40
2018-06-19T07:00:52.727Z,60.10
2018-06-19T07:03:29.750Z,59.60
2018-06-19T07:06:07.329Z,59.90
2018-06-19T07:08:43.358Z,59.80
2018-06-19T07:11:19.762Z,59.20
2018-06-19T07:16:32.242Z,59.20
2018-06-19T07:19:10.383Z,59.60
2018-06-19T07:21:46.992Z,60.10
2018-06-19T07:27:00.388Z,60.60
2018-06-19T07:29:37.843Z,59.90
2018-06-19T07:32:14.973Z,59.40
2018-06-19T07:34:51.019Z,59.20
2018-06-19T07:37:29.701Z,58.20
2018-06-19T07:40:06.556Z,57.60
2018-06-19T07:42:43.865Z,57.50
2018-06-19T07:45:21.510Z,55.10
2018-06-19T07:48:00.249Z,54.50
2018-06-19T07:50:37.032Z,54.90
2018-06-19T07:53:14.476Z,55.30
2018-06-19T07:55:51.589Z,56.60
2018-06-19T07:58:28.184Z,57.30
2018-06-19T08:01:06.020Z,58.10
2018-06-19T08:03:42.713Z,59.50
2018-06-19T08:06:20.236Z,59.50
2018-06-19T08:08:56.705Z,61.10
2018-06-19T08:11:33.304Z,61.60
2018-06-19T08:14:10.671Z,61.60
2018-06-19T08:16:46.668Z,62.10
2018-06-19T08:19:22.873Z,63.10
2018-06-19T08:24:38.614Z,63.80
2018-06-19T08:27:15.896Z,61.90
2018-06-19T08:29:52.817Z,60.70
2018-06-19T08:32:29.383Z,59.70
2018-06-19T08:35:07.728Z,58.70
2018-06-19T08:37:44.708Z,58.30
2018-06-19T08:40:22.087Z,57.20
2018-06-19T08:42:59.403Z,56.80
2018-06-19T08:45:37.184Z,53.50
2018-06-19T08:48:13.768Z,52.90
2018-06-19T08:50:50.449Z,50.90
2018-06-19T08:53:27.750Z,50.40
2018-06-19T08:56:04.736Z,48.80
2018-06-19T08:58:41.362Z,49.50
2018-06-19T09:01:17.720Z,50.00
2018-06-19T09:03:55.814Z,51.10
2018-06-19T09:06:32.749Z,50.20
2018-06-19T09:09:11.532Z,49.10
2018-06-19T09:11:48.702Z,49.40
2018-06-19T09:14:27.879Z,47.70
2018-06-19T09:17:04.963Z,47.30
2018-06-19T09:19:42.256Z,46.40
2018-06-19T09:22:18.938Z,44.00
2018-06-19T09:24:55.524Z,43.00
2018-06-19T09:27:33.135Z,42.80
2018-06-19T09:30:11.402Z,43.60
2018-06-19T09:32:48.857Z,43.10
2018-06-19T09:35:26.733Z,44.80
2018-06-19T09:38:03.667Z,49.20
2018-06-19T09:40:41.045Z,50.30
2018-06-19T09:43:18.321Z,51.70
2018-06-19T09:45:55.181Z,53.60
2018-06-19T09:48:32.085Z,54.50
2018-06-19T09:51:08.101Z,52.10
2018-06-19T09:53:46.430Z,49.70
2018-06-19T09:56:23.247Z,48.60
2018-06-19T09:59:00.726Z,46.20
2018-06-19T10:01:38.267Z,47.10
2018-06-19T10:04:16.519Z,49.70
2018-06-19T10:06:54.663Z,52.80
2018-06-19T10:09:32.489Z,54.10
2018-06-19T10:12:10.948Z,54.00
2018-06-19T10:14:47.480Z,54.90
2018-06-19T10:17:25.333Z,54.50
2018-06-19T10:20:02.177Z,55.10
2018-06-19T10:22:38.912Z,51.70
2018-06-19T10:25:16.265Z,49.10
2018-06-19T10:27:54.140Z,47.00
2018-06-19T10:30:32.178Z,46.10
2018-06-19T10:33:10.297Z,47.30
2018-06-19T10:35:47.655Z,49.30
2018-06-19T10:38:24.841Z,49.50
2018-06-19T10:41:03.351Z,48.40
2018-06-19T10:43:40.893Z,42.50
2018-06-19T10:46:17.972Z,40.50
2018-06-19T10:48:54.269Z,43.90
2018-06-19T10:51:31.583Z,45.90
2018-06-19T10:54:08.163Z,48.10
2018-06-19T10:56:45.528Z,50.10
2018-06-19T10:59:22.150Z,49.20
2018-06-19T11:02:00.848Z,47.20
2018-06-19T11:04:37.931Z,45.00
2018-06-19T11:07:14.460Z,45.80
2018-06-19T11:09:53.724Z,46.50
2018-06-19T11:12:31.820Z,42.70
2018-06-19T11:15:09.068Z,42.80
2018-06-19T11:17:46.332Z,41.00
2018-06-19T11:20:24.857Z,39.40
2018-06-19T11:23:03.200Z,40.30
2018-06-19T11:25:41.161Z,43.30
2018-06-19T11:28:17.971Z,45.10
2018-06-19T11:30:55.325Z,46.10
2018-06-19T11:33:32.208Z,47.60
2018-06-19T11:36:09.938Z,47.40
2018-06-19T11:38:47.979Z,46.30
2018-06-19T11:41:25.577Z,45.60
2018-06-19T11:44:02.961Z,46.80
2018-06-19T11:46:41.139Z,47.50
2018-06-19T11:49:18.065Z,47.90
2018-06-19T11:51:55.977Z,47.90
2018-06-19T11:54:32.686Z,47.80
2018-06-19T11:57:10.297Z,46.00
2018-06-19T11:59:47.642Z,45.60
2018-06-19T12:02:23.293Z,44.40
2018-06-19T12:05:00.015Z,44.60
2018-06-19T12:07:42.459Z,42.90
2018-06-19T12:10:19.641Z,43.00
2018-06-19T12:12:57.598Z,42.40
2018-06-19T12:15:34.601Z,42.00
2018-06-19T12:18:14.455Z,44.00
2018-06-19T12:23:32.264Z,48.70
2018-06-19T12:26:08.905Z,47.60
2018-06-19T12:28:46.345Z,48.00
2018-06-19T12:31:23.209Z,48.90
2018-06-19T12:34:01.491Z,49.70
2018-06-19T12:36:38.405Z,49.30
2018-06-19T12:39:15.697Z,49.00
2018-06-19T12:41:51.784Z,49.80
2018-06-19T12:44:29.679Z,50.00
2018-06-19T12:47:06.285Z,50.30
2018-06-19T12:52:49.303Z,50.20
2018-06-19T12:55:43.401Z,50.90
2018-06-19T12:58:21.452Z,52.10
2018-06-19T13:00:58.149Z,51.80
2018-06-19T13:03:52.500Z,52.20
2018-06-19T13:06:35.660Z,52.50
2018-06-19T13:09:12.016Z,51.50
2018-06-19T13:11:49.464Z,51.50
2018-06-19T13:14:40.096Z,50.90
2018-06-19T13:17:34.370Z,46.70
2018-06-19T13:20:28.120Z,47.10
2018-06-19T13:23:06.551Z,46.10
2018-06-19T13:25:43.209Z,46.60
2018-06-19T13:28:32.917Z,45.80
2018-06-19T13:31:26.072Z,45.90
2018-06-19T13:34:02.600Z,46.50
2018-06-19T13:36:40.337Z,45.70
2018-06-19T13:39:18.531Z,45.60
2018-06-19T13:42:12.430Z,43.60
2018-06-19T13:45:07.232Z,42.90
2018-06-19T13:47:44.260Z,40.60
2018-06-19T13:50:22.354Z,41.60
2018-06-19T13:53:00.062Z,42.60
2018-06-19T13:56:50.872Z,42.60
2018-06-19T13:59:26.176Z,43.80
2018-06-19T14:02:03.883Z,45.00
2018-06-19T14:04:40.085Z,44.60
2018-06-19T14:07:16.181Z,44.50
2018-06-19T14:10:08.871Z,44.70
2018-06-19T14:13:04.919Z,44.20
2018-06-19T14:18:22.357Z,41.60
2018-06-19T14:21:00.013Z,41.60
2018-06-19T14:23:37.022Z,40.20
2018-06-19T14:26:14.208Z,39.70
2018-06-19T14:28:52.323Z,40.50
2018-06-19T14:31:28.506Z,41.60
2018-06-19T14:34:04.932Z,42.40
2018-06-19T14:36:42.525Z,42.30
2018-06-19T14:39:19.558Z,42.40
2018-06-19T14:41:56.488Z,44.30
2018-06-19T14:44:32.752Z,43.80
2018-06-19T14:47:09.594Z,42.20
2018-06-19T14:49:47.086Z,42.50
2018-06-19T14:52:24.766Z,42.70
2018-06-19T14:55:01.780Z,43.20
2018-06-19T14:57:38.637Z,43.50
2018-06-19T15:00:16.189Z,43.00
2018-06-19T15:02:53.692Z,42.60
2018-06-19T15:05:31.265Z,43.00
2018-06-19T15:08:07.801Z,43.50
2018-06-19T15:10:44.285Z,43.80
2018-06-19T15:13:22.408Z,42.90
2018-06-19T15:16:00.912Z,43.10
2018-06-19T15:18:38.563Z,43.20
2018-06-19T15:21:15.484Z,42.80
2018-06-19T15:23:51.822Z,43.60
2018-06-19T15:26:28.601Z,43.50
2018-06-19T15:29:05.289Z,44.00
2018-06-19T15:31:42.593Z,43.30
2018-06-19T15:34:19.804Z,44.00
2018-06-19T15:36:58.279Z,44.50
2018-06-19T15:39:36.108Z,45.00
2018-06-19T15:42:13.428Z,44.80
2018-06-19T15:44:49.728Z,44.80
2018-06-19T15:47:27.591Z,44.70
2018-06-19T15:50:04.615Z,45.30
2018-06-19T15:52:42.918Z,45.20
2018-06-19T15:55:19.565Z,45.40
2018-06-19T15:57:57.766Z,45.60
2018-06-19T16:00:33.996Z,45.70
2018-06-19T16:03:10.272Z,46.20
2018-06-19T16:05:48.349Z,46.60
2018-06-19T16:08:24.953Z,46.30
2018-06-19T16:11:02.917Z,47.10
2018-06-19T16:13:40.148Z,47.50
2018-06-19T16:16:18.192Z,47.50
2018-06-19T16:18:55.468Z,47.80
2018-06-19T16:21:31.236Z,48.00
2018-06-19T16:24:08.969Z,48.30
2018-06-19T16:26:45.564Z,48.10
2018-06-19T16:29:22.931Z,48.60
2018-06-19T16:32:00.494Z,48.80
2018-06-19T16:34:38.029Z,48.80
2018-06-19T16:37:14.356Z,49.40
2018-06-19T16:39:51.937Z,49.20
2018-06-19T16:42:28.994Z,49.60
2018-06-19T16:45:04.809Z,49.50
2018-06-19T16:47:42.879Z,49.60
2018-06-19T16:50:19.709Z,50.00
2018-06-19T16:52:56.431Z,50.90
2018-06-19T16:55:32.921Z,50.60
2018-06-19T16:58:09.546Z,51.00
2018-06-19T17:00:45.987Z,51.40
2018-06-19T17:03:26.496Z,51.10
2018-06-19T17:06:02.098Z,51.20
2018-06-19T17:08:38.428Z,51.80
2018-06-19T17:11:17.136Z,51.40
2018-06-19T17:13:53.961Z,52.00
2018-06-19T17:16:32.159Z,52.50
2018-06-19T17:19:09.617Z,52.50
2018-06-19T17:21:45.230Z,52.10
2018-06-19T17:24:21.421Z,52.40
2018-06-19T17:26:59.276Z,52.50
2018-06-19T17:29:36.617Z,52.50
2018-06-19T17:32:12.521Z,52.70
2018-06-19T17:34:49.133Z,52.50
2018-06-19T17:37:26.183Z,53.50
2018-06-19T17:40:04.993Z,53.50
2018-06-19T17:42:41.684Z,53.50
2018-06-19T17:45:18.605Z,53.60
2018-06-19T17:47:54.996Z,54.10
2018-06-19T17:50:31.667Z,54.20
2018-06-19T17:53:08.189Z,54.20
2018-06-19T17:55:46.196Z,54.50
2018-06-19T17:58:22.418Z,54.50
2018-06-19T18:00:58.699Z,55.20
2018-06-19T18:03:34.993Z,54.90
2018-06-19T18:06:11.380Z,54.70
2018-06-19T18:08:48.638Z,54.90
2018-06-19T18:11:26.202Z,55.30
2018-06-19T18:14:02.095Z,55.00
2018-06-19T18:16:38.906Z,55.40
2018-06-19T18:19:15.441Z,55.30
2018-06-19T18:21:52.096Z,55.40
2018-06-19T18:24:30.318Z,55.40
2018-06-19T18:27:06.910Z,55.60
2018-06-19T18:29:45.276Z,55.50
2018-06-19T18:32:21.092Z,55.70
2018-06-19T18:34:58.316Z,56.20
2018-06-19T18:37:35.154Z,56.40
2018-06-19T18:40:13.584Z,56.90
2018-06-19T18:42:49.719Z,57.30
2018-06-19T18:45:27.155Z,57.60
2018-06-19T18:48:05.540Z,57.90
2018-06-19T18:50:42.529Z,58.20
2018-06-19T18:53:20.584Z,58.50
2018-06-19T18:55:58.632Z,58.90
2018-06-19T18:58:36.380Z,59.50
2018-06-19T19:01:15.077Z,59.20
2018-06-19T19:03:51.684Z,59.30
2018-06-19T19:06:30.060Z,59.40
2018-06-19T19:09:10.397Z,59.40
2018-06-19T19:11:46.752Z,60.00
2018-06-19T19:14:24.073Z,60.00
2018-06-19T19:17:05.380Z,60.10
2018-06-19T19:19:46.357Z,60.80
2018-06-19T19:22:24.979Z,61.40
2018-06-19T19:25:04.765Z,61.60
2018-06-19T19:27:47.034Z,62.00
2018-06-19T19:30:25.784Z,62.30
2018-06-19T19:33:05.661Z,62.80
2018-06-19T19:35:41.552Z,62.90
2018-06-19T19:38:25.153Z,63.10
2018-06-19T19:41:02.283Z,63.20
2018-06-19T19:43:40.148Z,63.70
2018-06-19T19:46:22.292Z,63.80
2018-06-19T19:48:59.636Z,64.30
2018-06-19T19:51:36.156Z,64.30
2018-06-19T19:54:12.829Z,65.00
2018-06-19T19:56:55.372Z,65.10
2018-06-19T19:59:31.980Z,64.80
2018-06-19T20:02:08.388Z,65.30
2018-06-19T20:04:44.496Z,65.50
2018-06-19T20:07:21.625Z,65.70
2018-06-19T20:09:58.205Z,66.10
2018-06-19T20:12:35.037Z,65.90
2018-06-19T20:15:12.324Z,66.30
2018-06-19T20:17:48.314Z,66.40
2018-06-19T20:20:25.023Z,66.40
2018-06-19T20:23:00.875Z,66.60
2018-06-19T20:25:38.248Z,67.10
2018-06-19T20:28:14.760Z,67.40
2018-06-19T20:30:53.353Z,67.70
2018-06-19T20:33:29.452Z,68.00
2018-06-19T20:36:05.820Z,68.40
2018-06-19T20:38:43.873Z,68.60
2018-06-19T20:41:21.017Z,69.10
2018-06-19T20:43:57.577Z,69.10
2018-06-19T20:46:33.835Z,69.50
2018-06-19T20:49:13.493Z,69.60
2018-06-19T20:54:28.284Z,70.10
2018-06-19T20:57:06.116Z,70.50
2018-06-19T20:59:42.524Z,70.50
2018-06-19T21:02:19.629Z,70.60
2018-06-19T21:04:57.229Z,70.80
2018-06-19T21:07:34.902Z,70.90
2018-06-19T21:10:11.494Z,70.90
2018-06-19T21:12:49.513Z,71.50
2018-06-19T21:15:25.797Z,71.70
2018-06-19T21:18:03.154Z,71.60
2018-06-19T21:20:39.696Z,71.70
2018-06-19T21:23:15.529Z,72.80
2018-06-19T21:25:52.070Z,72.50
2018-06-19T21:28:27.989Z,72.60
2018-06-19T21:31:04.917Z,73.10
2018-06-19T21:33:40.830Z,73.30
2018-06-19T21:36:18.560Z,73.60
2018-06-19T21:38:56.240Z,73.90
2018-06-19T21:41:32.580Z,73.90
2018-06-19T21:44:08.676Z,74.10
2018-06-19T21:46:44.572Z,74.20
2018-06-19T21:49:22.170Z,74.60
2018-06-19T21:51:58.111Z,74.60
2018-06-19T21:54:35.458Z,74.40
2018-06-19T21:57:11.936Z,74.60
2018-06-19T21:59:48.317Z,74.80
2018-06-19T22:02:29.802Z,75.10
2018-06-19T22:05:06.239Z,75.40
2018-06-19T22:07:43.921Z,75.20
2018-06-19T22:10:21.327Z,75.40
2018-06-19T22:12:57.225Z,75.10
2018-06-19T22:15:33.521Z,75.00
2018-06-19T22:18:11.243Z,75.00
2018-06-19T22:20:47.480Z,74.70
2018-06-19T22:23:23.584Z,74.50
2018-06-19T22:26:00.351Z,74.60
2018-06-19T22:28:38.614Z,74.50
2018-06-19T22:31:14.315Z,74.00
2018-06-19T22:33:51.152Z,73.90
2018-06-19T22:36:28.184Z,73.60
2018-06-19T22:39:06.522Z,73.70
2018-06-19T22:41:43.623Z,73.80
2018-06-19T22:44:21.144Z,73.60
2018-06-19T22:46:57.945Z,73.50
2018-06-19T22:49:34.025Z,73.80
2018-06-19T22:52:10.580Z,73.40
2018-06-19T22:54:47.283Z,73.50
2018-06-19T22:57:24.523Z,73.30
2018-06-19T23:00:01.720Z,73.00
2018-06-19T23:02:38.062Z,73.50
2018-06-19T23:05:14.336Z,73.00
2018-06-19T23:07:50.169Z,73.40
2018-06-19T23:10:26.841Z,73.40
2018-06-19T23:13:03.137Z,73.10
2018-06-19T23:15:40.627Z,73.80
2018-06-19T23:18:16.276Z,73.60
2018-06-19T23:23:29.725Z,73.70
2018-06-19T23:26:07.908Z,73.70
2018-06-19T23:28:44.746Z,73.50
2018-06-19T23:31:22.669Z,73.50
2018-06-19T23:33:58.495Z,73.90
2018-06-19T23:36:36.046Z,74.60
2018-06-19T23:39:12.368Z,75.00
2018-06-19T23:41:50.429Z,75.50
2018-06-19T23:44:27.482Z,75.50
2018-06-19T23:47:04.036Z,75.30
2018-06-19T23:49:40.103Z,75.40
2018-06-19T23:52:16.801Z,75.50
2018-06-19T23:54:54.343Z,75.70
2018-06-19T23:57:32.581Z,75.30
